sensor_id;sensor_type;location;lat;lon;timestamp;temperature;humidity
25933;DHT22;13731;51.166;4.474;2023-05-10T00:02:07;13.50;99.90
25933;DHT22;13731;51.166;4.474;2023-05-10T00:04:33;13.70;99.90
25933;DHT22;13731;51.166;4.474;2023-05-10T00:06:59;13.60;99.90
25933;DHT22;13731;51.166;4.474;2023-05-10T00:09:25;13.50;99.90
25933;DHT22;13731;51.166;4.474;2023-05-10T00:11:50;13.50;99.90
25933;DHT22;13731;51.166;4.474;2023-05-10T00:14:16;13.50;99.90
25933;DHT22;13731;51.166;4.474;2023-05-10T00:16:42;13.50;99.90
25933;DHT22;13731;51.166;4.474;2023-05-10T00:19:08;13.50;99.90
25933;DHT22;13731;51.166;4.474;2023-05-10T00:21:34;13.50;99.90
25933;DHT22;13731;51.166;4.474;2023-05-10T00:24:00;13.60;99.90
25933;DHT22;13731;51.166;4.474;2023-05-10T00:26:27;13.70;99.90
25933;DHT22;13731;51.166;4.474;2023-05-10T00:28:55;13.80;99.90
25933;DHT22;13731;51.166;4.474;2023-05-10T00:31:22;13.70;99.90
25933;DHT22;13731;51.166;4.474;2023-05-10T00:33:49;13.70;99.90
25933;DHT22;13731;51.166;4.474;2023-05-10T00:36:15;13.80;99.90
25933;DHT22;13731;51.166;4.474;2023-05-10T00:38:41;13.70;99.90
25933;DHT22;13731;51.166;4.474;2023-05-10T00:41:07;13.70;99.90
25933;DHT22;13731;51.166;4.474;2023-05-10T00:43:35;13.70;99.90
25933;DHT22;13731;51.166;4.474;2023-05-10T00:46:04;13.60;99.90
25933;DHT22;13731;51.166;4.474;2023-05-10T00:48:30;13.70;99.90
25933;DHT22;13731;51.166;4.474;2023-05-10T00:50:55;13.70;99.90
25933;DHT22;13731;51.166;4.474;2023-05-10T00:53:21;13.70;99.90
25933;DHT22;13731;51.166;4.474;2023-05-10T00:55:47;13.70;99.90
25933;DHT22;13731;51.166;4.474;2023-05-10T00:58:13;13.90;99.90
25933;DHT22;13731;51.166;4.474;2023-05-10T01:00:41;13.90;99.90
25933;DHT22;13731;51.166;4.474;2023-05-10T01:03:08;13.80;99.90
25933;DHT22;13731;51.166;4.474;2023-05-10T01:05:33;13.70;99.90
25933;DHT22;13731;51.166;4.474;2023-05-10T01:07:59;13.70;99.90
25933;DHT22;13731;51.166;4.474;2023-05-10T01:10:26;13.70;99.90
25933;DHT22;13731;51.166;4.474;2023-05-10T01:12:51;13.70;99.90
25933;DHT22;13731;51.166;4.474;2023-05-10T01:15:17;13.70;99.90
25933;DHT22;13731;51.166;4.474;2023-05-10T01:17:45;13.70;99.90
25933;DHT22;13731;51.166;4.474;2023-05-10T01:20:11;13.60;99.90
25933;DHT22;13731;51.166;4.474;2023-05-10T01:22:53;13.50;99.90
25933;DHT22;13731;51.166;4.474;2023-05-10T01:25:40;13.60;99.90
25933;DHT22;13731;51.166;4.474;2023-05-10T01:34:11;13.40;99.90
25933;DHT22;13731;51.166;4.474;2023-05-10T01:42:08;13.50;99.90
25933;DHT22;13731;51.166;4.474;2023-05-10T01:44:40;13.30;99.90
25933;DHT22;13731;51.166;4.474;2023-05-10T01:47:17;13.30;99.90
25933;DHT22;13731;51.166;4.474;2023-05-10T01:49:50;13.40;99.90
25933;DHT22;13731;51.166;4.474;2023-05-10T01:52:18;13.40;99.90
25933;DHT22;13731;51.166;4.474;2023-05-10T01:55:08;13.50;99.90
25933;DHT22;13731;51.166;4.474;2023-05-10T01:57:36;13.50;99.90
25933;DHT22;13731;51.166;4.474;2023-05-10T02:00:08;13.60;99.90
25933;DHT22;13731;51.166;4.474;2023-05-10T02:02:44;13.50;99.90
25933;DHT22;13731;51.166;4.474;2023-05-10T02:05:12;13.40;99.90
25933;DHT22;13731;51.166;4.474;2023-05-10T02:07:39;13.40;99.90
25933;DHT22;13731;51.166;4.474;2023-05-10T02:10:08;13.30;99.90
25933;DHT22;13731;51.166;4.474;2023-05-10T02:12:41;13.50;99.90
25933;DHT22;13731;51.166;4.474;2023-05-10T02:15:08;13.70;99.90
25933;DHT22;13731;51.166;4.474;2023-05-10T02:17:37;13.70;99.90
25933;DHT22;13731;51.166;4.474;2023-05-10T02:20:06;13.80;99.90
25933;DHT22;13731;51.166;4.474;2023-05-10T02:22:33;13.70;99.90
25933;DHT22;13731;51.166;4.474;2023-05-10T02:25:00;13.90;99.90
25933;DHT22;13731;51.166;4.474;2023-05-10T02:27:27;13.80;99.90
25933;DHT22;13731;51.166;4.474;2023-05-10T02:29:55;13.80;99.90
25933;DHT22;13731;51.166;4.474;2023-05-10T02:32:24;13.90;99.90
25933;DHT22;13731;51.166;4.474;2023-05-10T02:34:51;13.80;99.90
25933;DHT22;13731;51.166;4.474;2023-05-10T02:37:21;13.70;99.90
25933;DHT22;13731;51.166;4.474;2023-05-10T02:39:52;13.60;99.90
25933;DHT22;13731;51.166;4.474;2023-05-10T02:42:22;13.50;99.90
25933;DHT22;13731;51.166;4.474;2023-05-10T02:44:52;13.50;99.90
25933;DHT22;13731;51.166;4.474;2023-05-10T02:47:19;13.60;99.90
25933;DHT22;13731;51.166;4.474;2023-05-10T02:49:45;13.60;99.90
25933;DHT22;13731;51.166;4.474;2023-05-10T02:52:16;13.70;99.90
25933;DHT22;13731;51.166;4.474;2023-05-10T02:54:48;14.00;99.90
25933;DHT22;13731;51.166;4.474;2023-05-10T02:57:16;13.90;99.90
25933;DHT22;13731;51.166;4.474;2023-05-10T02:59:45;13.80;99.90
25933;DHT22;13731;51.166;4.474;2023-05-10T03:02:12;13.70;99.90
25933;DHT22;13731;51.166;4.474;2023-05-10T03:04:38;13.50;99.90
25933;DHT22;13731;51.166;4.474;2023-05-10T03:07:04;13.40;99.90
25933;DHT22;13731;51.166;4.474;2023-05-10T03:09:31;13.50;99.90
25933;DHT22;13731;51.166;4.474;2023-05-10T03:14:42;13.80;99.90
25933;DHT22;13731;51.166;4.474;2023-05-10T03:22:47;13.60;99.90
25933;DHT22;13731;51.166;4.474;2023-05-10T03:25:15;13.50;99.90
25933;DHT22;13731;51.166;4.474;2023-05-10T03:27:43;13.60;99.90
25933;DHT22;13731;51.166;4.474;2023-05-10T03:30:14;13.50;99.90
25933;DHT22;13731;51.166;4.474;2023-05-10T03:32:40;13.60;99.90
25933;DHT22;13731;51.166;4.474;2023-05-10T03:35:11;13.40;99.90
25933;DHT22;13731;51.166;4.474;2023-05-10T03:37:37;13.60;99.90
25933;DHT22;13731;51.166;4.474;2023-05-10T03:40:06;13.60;99.90
25933;DHT22;13731;51.166;4.474;2023-05-10T03:42:34;13.60;99.90
25933;DHT22;13731;51.166;4.474;2023-05-10T03:45:00;13.30;99.90
25933;DHT22;13731;51.166;4.474;2023-05-10T03:47:26;13.40;99.90
25933;DHT22;13731;51.166;4.474;2023-05-10T03:49:52;13.50;99.90
25933;DHT22;13731;51.166;4.474;2023-05-10T03:52:18;13.50;99.90
25933;DHT22;13731;51.166;4.474;2023-05-10T03:54:44;13.50;99.90
25933;DHT22;13731;51.166;4.474;2023-05-10T03:57:10;13.40;99.90
25933;DHT22;13731;51.166;4.474;2023-05-10T03:59:35;13.40;99.90
25933;DHT22;13731;51.166;4.474;2023-05-10T04:02:01;13.50;99.90
25933;DHT22;13731;51.166;4.474;2023-05-10T04:04:29;13.50;99.90
25933;DHT22;13731;51.166;4.474;2023-05-10T04:06:55;13.50;99.90
25933;DHT22;13731;51.166;4.474;2023-05-10T04:09:20;13.40;99.90
25933;DHT22;13731;51.166;4.474;2023-05-10T04:11:46;13.40;99.90
25933;DHT22;13731;51.166;4.474;2023-05-10T04:14:12;13.50;99.90
25933;DHT22;13731;51.166;4.474;2023-05-10T04:16:38;13.40;99.90
25933;DHT22;13731;51.166;4.474;2023-05-10T04:19:04;13.50;99.90
25933;DHT22;13731;51.166;4.474;2023-05-10T04:21:30;13.40;99.90
25933;DHT22;13731;51.166;4.474;2023-05-10T04:23:56;13.50;99.90
25933;DHT22;13731;51.166;4.474;2023-05-10T04:26:22;13.40;99.90
25933;DHT22;13731;51.166;4.474;2023-05-10T04:28:48;13.40;99.90
25933;DHT22;13731;51.166;4.474;2023-05-10T04:31:13;13.50;99.90
25933;DHT22;13731;51.166;4.474;2023-05-10T04:33:40;13.40;99.90
25933;DHT22;13731;51.166;4.474;2023-05-10T04:36:06;13.20;99.90
25933;DHT22;13731;51.166;4.474;2023-05-10T04:38:31;13.20;99.90
25933;DHT22;13731;51.166;4.474;2023-05-10T04:41:07;13.30;99.90
25933;DHT22;13731;51.166;4.474;2023-05-10T04:43:33;13.20;99.90
25933;DHT22;13731;51.166;4.474;2023-05-10T04:45:59;13.20;99.90
25933;DHT22;13731;51.166;4.474;2023-05-10T04:48:25;13.30;99.90
25933;DHT22;13731;51.166;4.474;2023-05-10T04:50:51;13.30;99.90
25933;DHT22;13731;51.166;4.474;2023-05-10T04:53:17;13.10;99.90
25933;DHT22;13731;51.166;4.474;2023-05-10T04:55:42;13.20;99.90
25933;DHT22;13731;51.166;4.474;2023-05-10T04:58:08;13.20;99.90
25933;DHT22;13731;51.166;4.474;2023-05-10T05:00:34;13.30;99.90
25933;DHT22;13731;51.166;4.474;2023-05-10T05:03:00;13.30;99.90
25933;DHT22;13731;51.166;4.474;2023-05-10T05:05:26;13.10;99.90
25933;DHT22;13731;51.166;4.474;2023-05-10T05:07:52;13.20;99.90
25933;DHT22;13731;51.166;4.474;2023-05-10T05:10:18;13.20;99.90
25933;DHT22;13731;51.166;4.474;2023-05-10T05:12:43;13.30;99.90
25933;DHT22;13731;51.166;4.474;2023-05-10T05:15:10;13.30;99.90
25933;DHT22;13731;51.166;4.474;2023-05-10T05:17:36;13.40;99.90
25933;DHT22;13731;51.166;4.474;2023-05-10T05:20:02;13.80;99.90
25933;DHT22;13731;51.166;4.474;2023-05-10T05:22:28;13.80;99.90
25933;DHT22;13731;51.166;4.474;2023-05-10T05:24:55;13.80;99.90
25933;DHT22;13731;51.166;4.474;2023-05-10T05:27:22;14.00;99.90
25933;DHT22;13731;51.166;4.474;2023-05-10T05:29:50;14.00;99.90
25933;DHT22;13731;51.166;4.474;2023-05-10T05:32:16;14.10;99.90
25933;DHT22;13731;51.166;4.474;2023-05-10T05:34:44;14.10;99.90
25933;DHT22;13731;51.166;4.474;2023-05-10T05:37:15;14.10;99.90
25933;DHT22;13731;51.166;4.474;2023-05-10T05:39:41;14.20;99.90
25933;DHT22;13731;51.166;4.474;2023-05-10T05:42:08;14.30;99.90
25933;DHT22;13731;51.166;4.474;2023-05-10T05:44:34;14.30;99.90
25933;DHT22;13731;51.166;4.474;2023-05-10T05:47:00;14.40;99.90
25933;DHT22;13731;51.166;4.474;2023-05-10T05:49:26;14.40;99.90
25933;DHT22;13731;51.166;4.474;2023-05-10T05:51:52;14.40;99.90
25933;DHT22;13731;51.166;4.474;2023-05-10T05:54:17;14.60;99.90
25933;DHT22;13731;51.166;4.474;2023-05-10T05:56:43;14.70;99.90
25933;DHT22;13731;51.166;4.474;2023-05-10T05:59:10;14.50;99.90
25933;DHT22;13731;51.166;4.474;2023-05-10T06:01:36;14.60;99.90
25933;DHT22;13731;51.166;4.474;2023-05-10T06:04:02;14.30;99.90
25933;DHT22;13731;51.166;4.474;2023-05-10T06:06:28;14.40;99.90
25933;DHT22;13731;51.166;4.474;2023-05-10T06:08:54;14.50;99.90
25933;DHT22;13731;51.166;4.474;2023-05-10T06:11:20;14.60;99.90
25933;DHT22;13731;51.166;4.474;2023-05-10T06:13:47;14.70;99.90
25933;DHT22;13731;51.166;4.474;2023-05-10T06:16:13;14.90;99.90
25933;DHT22;13731;51.166;4.474;2023-05-10T06:18:39;15.00;99.90
25933;DHT22;13731;51.166;4.474;2023-05-10T06:21:05;14.90;99.90
25933;DHT22;13731;51.166;4.474;2023-05-10T06:23:30;15.00;99.90
25933;DHT22;13731;51.166;4.474;2023-05-10T06:25:56;15.00;99.90
25933;DHT22;13731;51.166;4.474;2023-05-10T06:28:22;15.00;99.90
25933;DHT22;13731;51.166;4.474;2023-05-10T06:30:48;15.20;99.90
25933;DHT22;13731;51.166;4.474;2023-05-10T06:33:14;15.10;99.90
25933;DHT22;13731;51.166;4.474;2023-05-10T06:35:41;15.00;99.90
25933;DHT22;13731;51.166;4.474;2023-05-10T06:38:07;15.10;99.90
25933;DHT22;13731;51.166;4.474;2023-05-10T06:40:33;14.70;1.00
25933;DHT22;13731;51.166;4.474;2023-05-10T06:42:59;14.80;99.90
25933;DHT22;13731;51.166;4.474;2023-05-10T06:45:25;15.00;88.80
25933;DHT22;13731;51.166;4.474;2023-05-10T06:47:50;15.10;1.00
25933;DHT22;13731;51.166;4.474;2023-05-10T06:50:16;14.80;18.50
25933;DHT22;13731;51.166;4.474;2023-05-10T06:52:42;14.60;1.00
25933;DHT22;13731;51.166;4.474;2023-05-10T06:55:08;14.60;19.30
25933;DHT22;13731;51.166;4.474;2023-05-10T06:57:34;14.70;1.00
25933;DHT22;13731;51.166;4.474;2023-05-10T07:00:00;14.70;1.00
25933;DHT22;13731;51.166;4.474;2023-05-10T07:02:26;15.00;99.90
25933;DHT22;13731;51.166;4.474;2023-05-10T07:04:52;15.00;99.90
25933;DHT22;13731;51.166;4.474;2023-05-10T07:07:19;15.10;99.90
25933;DHT22;13731;51.166;4.474;2023-05-10T07:09:45;14.80;99.90
25933;DHT22;13731;51.166;4.474;2023-05-10T07:12:11;14.90;99.90
25933;DHT22;13731;51.166;4.474;2023-05-10T07:14:36;14.90;99.90
25933;DHT22;13731;51.166;4.474;2023-05-10T07:17:03;15.20;1.00
25933;DHT22;13731;51.166;4.474;2023-05-10T07:19:29;15.50;1.00
25933;DHT22;13731;51.166;4.474;2023-05-10T07:21:55;15.50;99.90
25933;DHT22;13731;51.166;4.474;2023-05-10T07:24:21;15.00;1.00
25933;DHT22;13731;51.166;4.474;2023-05-10T07:26:46;15.00;1.00
25933;DHT22;13731;51.166;4.474;2023-05-10T07:29:16;15.20;99.90
25933;DHT22;13731;51.166;4.474;2023-05-10T07:31:42;15.50;1.00
25933;DHT22;13731;51.166;4.474;2023-05-10T07:34:08;15.70;48.80
25933;DHT22;13731;51.166;4.474;2023-05-10T07:36:34;16.10;1.00
25933;DHT22;13731;51.166;4.474;2023-05-10T07:39:00;16.20;1.00
25933;DHT22;13731;51.166;4.474;2023-05-10T07:41:26;16.40;99.90
25933;DHT22;13731;51.166;4.474;2023-05-10T07:43:52;16.20;99.90
25933;DHT22;13731;51.166;4.474;2023-05-10T07:46:19;16.50;99.90
25933;DHT22;13731;51.166;4.474;2023-05-10T07:48:46;16.40;99.90
25933;DHT22;13731;51.166;4.474;2023-05-10T07:51:11;16.60;99.90
25933;DHT22;13731;51.166;4.474;2023-05-10T07:53:38;16.70;99.90
25933;DHT22;13731;51.166;4.474;2023-05-10T07:56:23;16.90;99.90
25933;DHT22;13731;51.166;4.474;2023-05-10T07:58:50;16.80;1.00
25933;DHT22;13731;51.166;4.474;2023-05-10T08:01:16;16.60;99.90
25933;DHT22;13731;51.166;4.474;2023-05-10T08:03:42;16.50;99.90
25933;DHT22;13731;51.166;4.474;2023-05-10T08:06:08;16.50;99.90
25933;DHT22;13731;51.166;4.474;2023-05-10T08:08:34;16.20;99.90
25933;DHT22;13731;51.166;4.474;2023-05-10T08:10:59;15.90;99.90
25933;DHT22;13731;51.166;4.474;2023-05-10T08:13:25;15.70;1.00
25933;DHT22;13731;51.166;4.474;2023-05-10T08:15:51;15.90;99.90
25933;DHT22;13731;51.166;4.474;2023-05-10T08:18:19;15.80;1.00
25933;DHT22;13731;51.166;4.474;2023-05-10T08:20:44;15.70;99.90
25933;DHT22;13731;51.166;4.474;2023-05-10T08:23:12;15.90;1.00
25933;DHT22;13731;51.166;4.474;2023-05-10T08:25:39;16.10;99.90
25933;DHT22;13731;51.166;4.474;2023-05-10T08:28:04;16.20;1.00
25933;DHT22;13731;51.166;4.474;2023-05-10T08:30:30;16.50;1.00
25933;DHT22;13731;51.166;4.474;2023-05-10T08:32:56;16.50;1.00
25933;DHT22;13731;51.166;4.474;2023-05-10T08:35:22;16.70;1.00
25933;DHT22;13731;51.166;4.474;2023-05-10T08:37:47;16.90;99.90
25933;DHT22;13731;51.166;4.474;2023-05-10T08:40:14;17.10;1.00
25933;DHT22;13731;51.166;4.474;2023-05-10T08:42:44;16.90;1.00
25933;DHT22;13731;51.166;4.474;2023-05-10T08:45:13;17.00;8.90
25933;DHT22;13731;51.166;4.474;2023-05-10T08:47:41;17.00;7.40
25933;DHT22;13731;51.166;4.474;2023-05-10T08:50:08;17.40;1.00
25933;DHT22;13731;51.166;4.474;2023-05-10T08:52:37;17.00;1.00
25933;DHT22;13731;51.166;4.474;2023-05-10T08:55:04;17.00;1.00
25933;DHT22;13731;51.166;4.474;2023-05-10T08:57:30;17.00;52.00
25933;DHT22;13731;51.166;4.474;2023-05-10T08:59:56;17.40;1.00
25933;DHT22;13731;51.166;4.474;2023-05-10T09:02:23;17.30;99.90
25933;DHT22;13731;51.166;4.474;2023-05-10T09:04:49;17.00;1.00
25933;DHT22;13731;51.166;4.474;2023-05-10T09:07:15;17.00;1.00
25933;DHT22;13731;51.166;4.474;2023-05-10T09:09:42;16.80;99.90
25933;DHT22;13731;51.166;4.474;2023-05-10T09:12:08;16.90;99.90
25933;DHT22;13731;51.166;4.474;2023-05-10T09:14:36;17.00;99.90
25933;DHT22;13731;51.166;4.474;2023-05-10T09:17:04;17.40;1.00
25933;DHT22;13731;51.166;4.474;2023-05-10T09:19:30;17.70;99.90
25933;DHT22;13731;51.166;4.474;2023-05-10T09:21:58;17.70;99.90
25933;DHT22;13731;51.166;4.474;2023-05-10T09:24:26;17.70;99.90
25933;DHT22;13731;51.166;4.474;2023-05-10T09:26:56;17.30;1.00
25933;DHT22;13731;51.166;4.474;2023-05-10T09:29:22;16.80;99.90
25933;DHT22;13731;51.166;4.474;2023-05-10T09:31:50;16.60;1.00
25933;DHT22;13731;51.166;4.474;2023-05-10T09:34:31;16.50;99.90
25933;DHT22;13731;51.166;4.474;2023-05-10T09:36:59;16.30;99.90
25933;DHT22;13731;51.166;4.474;2023-05-10T09:39:38;15.80;99.90
25933;DHT22;13731;51.166;4.474;2023-05-10T09:42:06;15.50;99.90
25933;DHT22;13731;51.166;4.474;2023-05-10T09:44:33;15.60;99.90
25933;DHT22;13731;51.166;4.474;2023-05-10T09:47:02;15.20;99.90
25933;DHT22;13731;51.166;4.474;2023-05-10T09:49:29;15.40;99.90
25933;DHT22;13731;51.166;4.474;2023-05-10T09:52:03;15.80;99.90
25933;DHT22;13731;51.166;4.474;2023-05-10T09:54:30;15.70;99.90
25933;DHT22;13731;51.166;4.474;2023-05-10T09:56:56;15.60;1.00
25933;DHT22;13731;51.166;4.474;2023-05-10T09:59:25;15.80;1.00
25933;DHT22;13731;51.166;4.474;2023-05-10T10:01:58;15.70;99.90
25933;DHT22;13731;51.166;4.474;2023-05-10T10:04:25;15.70;99.90
25933;DHT22;13731;51.166;4.474;2023-05-10T10:07:04;15.40;99.90
25933;DHT22;13731;51.166;4.474;2023-05-10T10:09:30;15.30;1.00
25933;DHT22;13731;51.166;4.474;2023-05-10T10:11:56;15.00;71.20
25933;DHT22;13731;51.166;4.474;2023-05-10T10:14:23;15.10;99.90
25933;DHT22;13731;51.166;4.474;2023-05-10T10:16:52;15.60;99.90
25933;DHT22;13731;51.166;4.474;2023-05-10T10:19:19;16.00;1.00
25933;DHT22;13731;51.166;4.474;2023-05-10T10:21:46;16.50;1.00
25933;DHT22;13731;51.166;4.474;2023-05-10T10:24:12;17.60;99.90
25933;DHT22;13731;51.166;4.474;2023-05-10T10:26:38;18.50;93.50
25933;DHT22;13731;51.166;4.474;2023-05-10T10:34:34;18.80;99.90
25933;DHT22;13731;51.166;4.474;2023-05-10T10:37:05;18.20;1.00
25933;DHT22;13731;51.166;4.474;2023-05-10T10:39:31;18.10;99.90
25933;DHT22;13731;51.166;4.474;2023-05-10T10:41:58;17.90;90.00
25933;DHT22;13731;51.166;4.474;2023-05-10T10:50:07;17.00;1.00
25933;DHT22;13731;51.166;4.474;2023-05-10T10:55:08;17.40;99.90
25933;DHT22;13731;51.166;4.474;2023-05-10T11:02:49;17.80;99.90
25933;DHT22;13731;51.166;4.474;2023-05-10T11:08:19;17.40;99.90
25933;DHT22;13731;51.166;4.474;2023-05-10T11:15:59;16.20;1.00
25933;DHT22;13731;51.166;4.474;2023-05-10T11:18:29;15.90;99.90
25933;DHT22;13731;51.166;4.474;2023-05-10T11:21:00;15.80;1.00
25933;DHT22;13731;51.166;4.474;2023-05-10T11:23:33;15.80;1.00
25933;DHT22;13731;51.166;4.474;2023-05-10T11:26:13;15.70;1.00
25933;DHT22;13731;51.166;4.474;2023-05-10T11:28:48;15.50;99.90
25933;DHT22;13731;51.166;4.474;2023-05-10T11:31:16;15.40;99.90
25933;DHT22;13731;51.166;4.474;2023-05-10T11:33:45;15.60;1.00
25933;DHT22;13731;51.166;4.474;2023-05-10T11:36:13;15.50;1.00
25933;DHT22;13731;51.166;4.474;2023-05-10T11:38:40;15.50;1.00
25933;DHT22;13731;51.166;4.474;2023-05-10T11:41:08;15.50;1.00
25933;DHT22;13731;51.166;4.474;2023-05-10T11:43:34;15.50;1.00
25933;DHT22;13731;51.166;4.474;2023-05-10T11:46:02;15.40;1.00
25933;DHT22;13731;51.166;4.474;2023-05-10T11:48:29;15.50;1.00
25933;DHT22;13731;51.166;4.474;2023-05-10T11:50:55;15.50;1.00
25933;DHT22;13731;51.166;4.474;2023-05-10T11:53:25;15.30;99.90
25933;DHT22;13731;51.166;4.474;2023-05-10T11:55:51;15.40;45.70
25933;DHT22;13731;51.166;4.474;2023-05-10T11:58:18;15.60;99.90
25933;DHT22;13731;51.166;4.474;2023-05-10T12:00:45;15.70;1.00
25933;DHT22;13731;51.166;4.474;2023-05-10T12:03:11;15.90;27.60
25933;DHT22;13731;51.166;4.474;2023-05-10T12:05:37;15.80;99.90
25933;DHT22;13731;51.166;4.474;2023-05-10T12:08:21;16.10;99.90
25933;DHT22;13731;51.166;4.474;2023-05-10T12:10:47;15.90;99.90
25933;DHT22;13731;51.166;4.474;2023-05-10T12:13:14;15.90;99.90
25933;DHT22;13731;51.166;4.474;2023-05-10T12:15:41;16.10;99.90
25933;DHT22;13731;51.166;4.474;2023-05-10T12:18:11;16.10;91.60
25933;DHT22;13731;51.166;4.474;2023-05-10T12:20:38;16.40;1.00
25933;DHT22;13731;51.166;4.474;2023-05-10T12:23:04;16.10;1.00
25933;DHT22;13731;51.166;4.474;2023-05-10T12:25:32;15.90;99.90
25933;DHT22;13731;51.166;4.474;2023-05-10T12:27:59;15.80;99.90
25933;DHT22;13731;51.166;4.474;2023-05-10T12:30:31;15.60;2.90
25933;DHT22;13731;51.166;4.474;2023-05-10T12:33:13;15.60;99.90
25933;DHT22;13731;51.166;4.474;2023-05-10T12:35:51;15.80;1.00
25933;DHT22;13731;51.166;4.474;2023-05-10T12:41:07;16.20;1.00
25933;DHT22;13731;51.166;4.474;2023-05-10T12:43:33;16.00;1.00
25933;DHT22;13731;51.166;4.474;2023-05-10T12:46:26;15.80;99.90
25933;DHT22;13731;51.166;4.474;2023-05-10T12:48:53;15.80;99.90
25933;DHT22;13731;51.166;4.474;2023-05-10T12:51:20;15.70;1.00
25933;DHT22;13731;51.166;4.474;2023-05-10T12:53:47;15.80;1.00
25933;DHT22;13731;51.166;4.474;2023-05-10T12:56:13;16.00;99.90
25933;DHT22;13731;51.166;4.474;2023-05-10T12:58:39;16.30;99.90
25933;DHT22;13731;51.166;4.474;2023-05-10T13:01:05;16.70;1.00
25933;DHT22;13731;51.166;4.474;2023-05-10T13:03:31;16.80;99.90
25933;DHT22;13731;51.166;4.474;2023-05-10T13:05:57;16.70;99.90
25933;DHT22;13731;51.166;4.474;2023-05-10T13:08:23;16.70;99.90
25933;DHT22;13731;51.166;4.474;2023-05-10T13:10:49;16.80;90.40
25933;DHT22;13731;51.166;4.474;2023-05-10T13:13:15;16.90;99.90
25933;DHT22;13731;51.166;4.474;2023-05-10T13:15:41;16.80;1.00
25933;DHT22;13731;51.166;4.474;2023-05-10T13:18:06;16.90;1.00
25933;DHT22;13731;51.166;4.474;2023-05-10T13:20:32;16.80;64.60
25933;DHT22;13731;51.166;4.474;2023-05-10T13:22:58;17.00;58.10
25933;DHT22;13731;51.166;4.474;2023-05-10T13:25:24;16.80;99.90
25933;DHT22;13731;51.166;4.474;2023-05-10T13:27:50;16.90;99.90
25933;DHT22;13731;51.166;4.474;2023-05-10T13:30:15;16.90;98.60
25933;DHT22;13731;51.166;4.474;2023-05-10T13:32:41;17.00;99.90
25933;DHT22;13731;51.166;4.474;2023-05-10T13:35:07;17.10;1.00
25933;DHT22;13731;51.166;4.474;2023-05-10T13:37:33;16.90;99.90
25933;DHT22;13731;51.166;4.474;2023-05-10T13:40:03;17.00;1.00
25933;DHT22;13731;51.166;4.474;2023-05-10T13:42:29;17.10;1.00
25933;DHT22;13731;51.166;4.474;2023-05-10T13:44:57;17.20;1.00
25933;DHT22;13731;51.166;4.474;2023-05-10T13:47:22;17.00;1.00
25933;DHT22;13731;51.166;4.474;2023-05-10T13:49:48;16.70;99.90
25933;DHT22;13731;51.166;4.474;2023-05-10T13:52:14;16.80;99.90
25933;DHT22;13731;51.166;4.474;2023-05-10T13:54:40;16.70;1.00
25933;DHT22;13731;51.166;4.474;2023-05-10T13:57:06;16.60;1.00
25933;DHT22;13731;51.166;4.474;2023-05-10T13:59:32;16.60;1.00
25933;DHT22;13731;51.166;4.474;2023-05-10T14:01:58;16.60;47.30
25933;DHT22;13731;51.166;4.474;2023-05-10T14:04:25;16.40;99.90
25933;DHT22;13731;51.166;4.474;2023-05-10T14:06:50;16.40;99.90
25933;DHT22;13731;51.166;4.474;2023-05-10T14:09:18;16.50;99.90
25933;DHT22;13731;51.166;4.474;2023-05-10T14:11:44;16.80;1.00
25933;DHT22;13731;51.166;4.474;2023-05-10T14:14:10;16.70;1.00
25933;DHT22;13731;51.166;4.474;2023-05-10T14:16:36;16.40;17.60
25933;DHT22;13731;51.166;4.474;2023-05-10T14:19:02;16.10;1.00
25933;DHT22;13731;51.166;4.474;2023-05-10T14:21:28;16.10;99.90
25933;DHT22;13731;51.166;4.474;2023-05-10T14:23:56;16.20;99.90
25933;DHT22;13731;51.166;4.474;2023-05-10T14:26:22;16.20;1.00
25933;DHT22;13731;51.166;4.474;2023-05-10T14:28:48;16.00;8.00
25933;DHT22;13731;51.166;4.474;2023-05-10T14:31:14;16.00;1.00
25933;DHT22;13731;51.166;4.474;2023-05-10T14:33:42;16.10;99.90
25933;DHT22;13731;51.166;4.474;2023-05-10T14:36:08;16.40;99.90
25933;DHT22;13731;51.166;4.474;2023-05-10T14:38:34;16.20;99.90
25933;DHT22;13731;51.166;4.474;2023-05-10T14:41:00;16.40;1.00
25933;DHT22;13731;51.166;4.474;2023-05-10T14:43:26;16.50;99.90
25933;DHT22;13731;51.166;4.474;2023-05-10T14:45:53;16.50;99.90
25933;DHT22;13731;51.166;4.474;2023-05-10T14:48:19;16.60;1.00
25933;DHT22;13731;51.166;4.474;2023-05-10T14:50:46;16.80;99.90
25933;DHT22;13731;51.166;4.474;2023-05-10T14:53:12;17.00;99.90
25933;DHT22;13731;51.166;4.474;2023-05-10T14:55:38;17.40;1.00
25933;DHT22;13731;51.166;4.474;2023-05-10T14:58:04;17.70;1.00
25933;DHT22;13731;51.166;4.474;2023-05-10T15:00:31;17.80;1.00
25933;DHT22;13731;51.166;4.474;2023-05-10T15:02:57;17.80;99.90
25933;DHT22;13731;51.166;4.474;2023-05-10T15:05:23;17.60;99.90
25933;DHT22;13731;51.166;4.474;2023-05-10T15:07:48;17.30;1.00
25933;DHT22;13731;51.166;4.474;2023-05-10T15:10:15;16.90;99.90
25933;DHT22;13731;51.166;4.474;2023-05-10T15:12:40;16.30;1.00
25933;DHT22;13731;51.166;4.474;2023-05-10T15:15:07;15.80;1.00
25933;DHT22;13731;51.166;4.474;2023-05-10T15:17:33;15.60;1.00
25933;DHT22;13731;51.166;4.474;2023-05-10T15:20:00;15.40;1.00
25933;DHT22;13731;51.166;4.474;2023-05-10T15:22:29;15.30;99.90
25933;DHT22;13731;51.166;4.474;2023-05-10T15:24:55;15.40;98.90
25933;DHT22;13731;51.166;4.474;2023-05-10T15:27:21;15.30;99.90
25933;DHT22;13731;51.166;4.474;2023-05-10T15:29:47;15.30;1.00
25933;DHT22;13731;51.166;4.474;2023-05-10T15:32:12;15.50;1.00
25933;DHT22;13731;51.166;4.474;2023-05-10T15:34:38;15.40;1.00
25933;DHT22;13731;51.166;4.474;2023-05-10T15:37:04;15.30;99.90
25933;DHT22;13731;51.166;4.474;2023-05-10T15:39:30;15.60;1.00
25933;DHT22;13731;51.166;4.474;2023-05-10T15:41:56;15.80;1.00
25933;DHT22;13731;51.166;4.474;2023-05-10T15:44:22;16.00;99.90
25933;DHT22;13731;51.166;4.474;2023-05-10T15:46:47;15.70;99.90
25933;DHT22;13731;51.166;4.474;2023-05-10T15:49:13;15.70;1.00
25933;DHT22;13731;51.166;4.474;2023-05-10T15:51:39;16.00;99.90
25933;DHT22;13731;51.166;4.474;2023-05-10T15:54:06;16.20;1.00
25933;DHT22;13731;51.166;4.474;2023-05-10T15:56:35;16.50;99.90
25933;DHT22;13731;51.166;4.474;2023-05-10T15:59:01;16.50;99.90
25933;DHT22;13731;51.166;4.474;2023-05-10T16:01:26;16.40;99.90
25933;DHT22;13731;51.166;4.474;2023-05-10T16:03:53;16.40;99.90
25933;DHT22;13731;51.166;4.474;2023-05-10T16:06:18;16.30;99.90
25933;DHT22;13731;51.166;4.474;2023-05-10T16:08:44;16.10;1.00
25933;DHT22;13731;51.166;4.474;2023-05-10T16:11:10;16.10;99.90
25933;DHT22;13731;51.166;4.474;2023-05-10T16:13:36;15.70;1.00
25933;DHT22;13731;51.166;4.474;2023-05-10T16:16:02;15.70;29.80
25933;DHT22;13731;51.166;4.474;2023-05-10T16:18:28;15.90;1.00
25933;DHT22;13731;51.166;4.474;2023-05-10T16:20:54;16.00;1.00
25933;DHT22;13731;51.166;4.474;2023-05-10T16:23:20;16.10;1.00
25933;DHT22;13731;51.166;4.474;2023-05-10T16:25:46;16.20;1.00